This is the latest recevied weather packets stored in our database for station/object OK1UZT-14. If no packets are shown the sender has not sent any weather packets the latest 10 day(s).
| Time | Temp. | Humidity | Pressure | Rain* | Wind** | Luminosity | Snow |
|---|---|---|---|---|---|---|---|
| 1788270020 | 21.67° C | 48% | 1019.4 hPa | - | - | - | - |
| 1788269420 | 21.67° C | 48% | 1019.4 hPa | - | - | - | - |
| 1788268820 | 21.67° C | 48% | 1019.4 hPa | - | - | - | - |
| 1788268220 | 21.67° C | 47% | 1019.4 hPa | - | - | - | - |
| 1788267620 | 21.67° C | 49% | 1019.3 hPa | - | - | - | - |
| 1788267020 | 21.67° C | 48% | 1019.5 hPa | - | - | - | - |
| 1788266420 | 21.67° C | 48% | 1019.4 hPa | - | - | - | - |
| 1788265820 | 21.67° C | 48% | 1019.3 hPa | - | - | - | - |
| 1788265220 | 22.22° C | 47% | 1019.3 hPa | - | - | - | - |
| 1788264620 | 22.22° C | 46% | 1019.2 hPa | - | - | - | - |
| 1788264020 | 22.22° C | 46% | 1019.3 hPa | - | - | - | - |
| 1788263420 | 22.78° C | 45% | 1019.3 hPa | - | - | - | - |
| 1788262820 | 23.33° C | 45% | 1019.2 hPa | - | - | - | - |
| 1788262220 | 22.78° C | 47% | 1019.4 hPa | - | - | - | - |
| 1788261620 | 21.67° C | 48% | 1019.4 hPa | - | - | - | - |
| 1788261020 | 22.22° C | 47% | 1019.2 hPa | - | - | - | - |
| 1788260420 | 22.78° C | 46% | 1019.1 hPa | - | - | - | - |
| 1788259820 | 21.67° C | 48% | 1019.3 hPa | - | - | - | - |
| 1788259220 | 22.22° C | 48% | 1019.3 hPa | - | - | - | - |
| 1788258620 | 21.67° C | 48% | 1019.4 hPa | - | - | - | - |
| 1788258020 | 21.67° C | 46% | 1019.4 hPa | - | - | - | - |
| 1788257420 | 22.22° C | 47% | 1019.3 hPa | - | - | - | - |
| 1788256820 | 22.22° C | 47% | 1019.3 hPa | - | - | - | - |
| 1788256220 | 22.78° C | 48% | 1019.2 hPa | - | - | - | - |
| 1788255620 | 22.22° C | 50% | 1019.3 hPa | - | - | - | - |
* Rain since midnight (hover to see other rain measurements)
** Current wind speed in m/s (hover to see current wind gust speed)